Time;durP1;ratioP1;P1;durP2;ratioP2;P2;SDS_P1;SDS_P2;PMS_P1;PMS_P2;Temp;Humidity;BMP_temperature;BMP_pressure;BME280_temperature;BME280_humidity;BME280_pressure;Samples;Min_cycle;Max_cycle;Signal;HPM_P1;HPM_P2
2023/10/06 00:02:26;;;;;;;0.30;0.20;;;;;;;8.75;100.00;101358.53;4993699;28;20496;-51
2023/10/06 00:04:53;;;;;;;0.30;0.20;;;;;;;8.82;100.00;101362.06;4978611;28;20452;-51
2023/10/06 00:07:21;;;;;;;0.30;0.20;;;;;;;8.94;100.00;101354.06;4993816;28;20560;-51
2023/10/06 00:09:47;;;;;;;0.30;0.20;;;;;;;8.95;100.00;101350.50;4991910;28;20461;-52
2023/10/06 00:12:16;;;;;;;0.30;0.20;;;;;;;9.04;100.00;101350.44;4974247;28;20537;-51
2023/10/06 00:14:43;;;;;;;0.30;0.20;;;;;;;9.14;100.00;101349.50;4989307;28;20532;-51
2023/10/06 00:17:19;;;;;;;0.30;0.20;;;;;;;9.04;100.00;101350.44;4989569;28;20485;-51
2023/10/06 00:19:50;;;;;;;0.30;0.20;;;;;;;9.35;100.00;101355.59;4991250;28;20453;-51
2023/10/06 00:24:50;;;;;;;0.30;0.20;;;;;;;9.12;100.00;101350.41;4993263;28;20497;-51
2023/10/06 00:27:23;;;;;;;0.30;0.20;;;;;;;9.07;100.00;101347.78;4993224;28;20469;-51
2023/10/06 00:29:56;;;;;;;0.30;0.20;;;;;;;9.20;100.00;101351.25;4967833;28;20931;-51
2023/10/06 00:32:26;;;;;;;0.30;0.20;;;;;;;9.19;100.00;101357.47;4993336;28;20536;-51
2023/10/06 00:34:54;;;;;;;0.30;0.20;;;;;;;9.13;100.00;101366.31;4993387;28;20445;-51
2023/10/06 00:37:24;;;;;;;0.30;0.20;;;;;;;9.08;100.00;101364.59;4993058;28;20476;-51
2023/10/06 00:39:56;;;;;;;0.30;0.20;;;;;;;8.89;100.00;101366.41;4993448;28;20453;-51
2023/10/06 00:42:22;;;;;;;0.30;0.20;;;;;;;8.90;100.00;101365.53;4992947;28;20961;-51
2023/10/06 00:44:49;;;;;;;0.30;0.20;;;;;;;8.74;100.00;101367.38;4993199;28;20497;-51
2023/10/06 00:47:17;;;;;;;0.30;0.20;;;;;;;8.83;99.91;101367.34;4993026;28;20473;-51
2023/10/06 00:49:44;;;;;;;0.30;0.20;;;;;;;8.80;100.00;101367.38;4993275;28;20454;-51
2023/10/06 00:52:15;;;;;;;0.30;0.20;;;;;;;8.73;100.00;101357.66;4992987;28;20508;-51
2023/10/06 00:54:43;;;;;;;0.30;0.20;;;;;;;8.64;99.41;101359.47;4993116;28;20488;-51
2023/10/06 00:57:18;;;;;;;0.30;0.20;;;;;;;8.50;100.00;101357.75;4992985;28;20502;-51
2023/10/06 00:59:45;;;;;;;0.30;0.20;;;;;;;8.51;100.00;101362.16;4993222;28;20445;-51
2023/10/06 01:02:14;;;;;;;0.30;0.20;;;;;;;8.49;100.00;101357.72;4992795;28;20544;-51
2023/10/06 01:04:45;;;;;;;0.30;0.20;;;;;;;8.37;100.00;101349.84;4992722;28;20494;-52
2023/10/06 01:07:13;;;;;;;0.30;0.20;;;;;;;8.29;100.00;101347.16;4968107;28;20497;-51
2023/10/06 01:09:56;;;;;;;0.30;0.20;;;;;;;8.27;100.00;101346.28;4992403;28;20462;-53
2023/10/06 01:12:31;;;;;;;0.30;0.20;;;;;;;8.40;100.00;101353.34;4973505;28;20538;-53
2023/10/06 01:15:19;;;;;;;0.30;0.20;;;;;;;8.37;100.00;101352.50;4990522;28;20864;-53
2023/10/06 01:17:47;;;;;;;0.30;0.20;;;;;;;8.31;100.00;101362.16;4985272;28;20481;-53
2023/10/06 01:20:33;;;;;;;0.30;0.20;;;;;;;8.34;100.00;101353.34;4992776;28;20460;-52
2023/10/06 01:23:00;;;;;;;0.30;0.20;;;;;;;8.29;100.00;101347.16;4992550;28;20489;-52
2023/10/06 01:25:28;;;;;;;0.30;0.20;;;;;;;8.22;99.41;101356.00;4992664;28;20471;-53
2023/10/06 01:27:54;;;;;;;0.30;0.20;;;;;;;8.26;100.00;101358.66;4992349;28;20561;-53
2023/10/06 01:30:21;;;;;;;0.30;0.20;;;;;;;8.23;99.95;101355.13;4996084;28;20555;-52
2023/10/06 01:32:50;;;;;;;0.30;0.20;;;;;;;8.26;99.61;101350.72;4996563;28;20457;-53
2023/10/06 01:35:23;;;;;;;0.30;0.20;;;;;;;8.17;100.00;101347.19;4996551;28;20445;-53
2023/10/06 01:37:59;;;;;;;0.30;0.20;;;;;;;8.22;100.00;101351.59;4996497;28;20528;-52
2023/10/06 01:42:56;;;;;;;0.30;0.20;;;;;;;7.99;100.00;101341.03;4993727;28;20874;-52
2023/10/06 01:45:22;;;;;;;0.30;0.20;;;;;;;7.93;100.00;101345.44;4996432;28;20450;-52
2023/10/06 01:47:56;;;;;;;0.30;0.20;;;;;;;7.98;99.77;101339.28;4996402;28;20574;-52
2023/10/06 01:50:31;;;;;;;0.30;0.20;;;;;;;7.94;99.67;101342.78;4996209;28;20472;-53
2023/10/06 01:52:58;;;;;;;0.30;0.20;;;;;;;8.06;100.00;101331.31;4996247;28;20548;-53
2023/10/06 01:55:25;;;;;;;0.30;0.20;;;;;;;7.95;99.70;101325.16;4996271;28;20464;-53
2023/10/06 01:57:52;;;;;;;0.30;0.20;;;;;;;7.92;99.87;101323.38;4996173;28;20508;-53
2023/10/06 02:00:26;;;;;;;0.30;0.30;;;;;;;8.03;100.00;101332.19;4996070;28;20524;-53
2023/10/06 02:02:52;;;;;;;0.30;0.20;;;;;;;7.97;99.85;101339.28;4996135;28;20528;-52
2023/10/06 02:05:20;;;;;;;0.30;0.20;;;;;;;7.96;99.76;101335.75;4995828;28;20521;-53
2023/10/06 02:07:47;;;;;;;0.30;0.20;;;;;;;7.85;100.00;101336.66;4995736;28;20844;-53
2023/10/06 02:10:16;;;;;;;0.30;0.20;;;;;;;7.85;99.43;101345.47;4990637;28;20442;-53
2023/10/06 02:12:47;;;;;;;0.30;0.20;;;;;;;7.72;100.00;101339.28;4976538;28;20482;-53
2023/10/06 02:15:14;;;;;;;0.30;0.20;;;;;;;7.65;100.00;101334.88;4995446;28;20449;-53
2023/10/06 02:17:41;;;;;;;0.30;0.20;;;;;;;7.73;99.71;101340.16;4988173;28;20485;-53
2023/10/06 02:20:18;;;;;;;0.30;0.20;;;;;;;7.66;100.00;101335.75;4995627;28;20454;-53
2023/10/06 02:22:45;;;;;;;0.30;0.20;;;;;;;7.56;100.00;101324.31;4995853;28;20445;-53
2023/10/06 02:25:12;;;;;;;0.30;0.20;;;;;;;7.55;100.00;101322.53;4995634;28;20496;-52
2023/10/06 02:27:44;;;;;;;0.30;0.20;;;;;;;7.50;100.00;101328.69;4995458;28;20523;-53
2023/10/06 02:30:12;;;;;;;0.30;0.20;;;;;;;7.60;100.00;101328.69;4995463;28;20453;-53
2023/10/06 02:32:39;;;;;;;0.30;0.20;;;;;;;7.70;100.00;101326.94;4995528;28;20464;-53
2023/10/06 02:35:07;;;;;;;0.30;0.20;;;;;;;7.51;100.00;101330.44;4995432;28;20826;-53
2023/10/06 02:37:34;;;;;;;0.30;0.20;;;;;;;7.56;100.00;101323.41;4995393;28;20477;-53
2023/10/06 02:40:01;;;;;;;0.30;0.20;;;;;;;7.71;100.00;101328.72;4994856;28;20453;-53
2023/10/06 02:42:27;;;;;;;0.30;0.20;;;;;;;7.54;99.84;101323.41;4990902;28;20933;-53
2023/10/06 02:44:54;;;;;;;0.30;0.20;;;;;;;7.54;100.00;101325.16;4995206;28;20493;-53
2023/10/06 02:47:21;;;;;;;0.30;0.20;;;;;;;7.62;100.00;101320.75;4995146;28;20497;-53
2023/10/06 02:49:48;;;;;;;0.30;0.20;;;;;;;7.65;100.00;101324.28;4995429;28;20454;-53
2023/10/06 02:52:37;;;;;;;0.30;0.20;;;;;;;7.68;100.00;101331.38;4995053;28;20548;-53
2023/10/06 02:57:34;;;;;;;0.30;0.20;;;;;;;7.94;100.00;101320.72;4994704;28;20472;-53
2023/10/06 03:02:55;;;;;;;0.30;0.20;;;;;;;8.20;100.00;101328.63;4994933;28;20823;-53
2023/10/06 03:05:32;;;;;;;0.30;0.20;;;;;;;8.25;100.00;101332.19;4994685;28;20501;-53
2023/10/06 03:08:08;;;;;;;0.30;0.20;;;;;;;8.30;100.00;101333.91;4994607;28;20547;-53
2023/10/06 03:10:42;;;;;;;0.30;0.20;;;;;;;8.19;100.00;101327.75;4969535;28;20499;-53
2023/10/06 03:13:16;;;;;;;0.30;0.20;;;;;;;8.13;100.00;101326.91;4978071;28;20459;-53
2023/10/06 03:15:45;;;;;;;0.30;0.20;;;;;;;7.98;100.00;101322.50;4994823;28;20867;-52
2023/10/06 03:18:13;;;;;;;0.30;0.20;;;;;;;8.09;100.00;101309.25;4986757;28;20569;-52
2023/10/06 03:20:41;;;;;;;0.30;0.20;;;;;;;8.15;100.00;101312.75;4977515;28;20717;-53
2023/10/06 03:25:54;;;;;;;0.30;0.20;;;;;;;8.36;100.00;101309.22;4994550;28;20476;-53
2023/10/06 03:28:25;;;;;;;0.30;0.20;;;;;;;8.35;100.00;101312.72;4994367;28;20998;-53
2023/10/06 03:30:52;;;;;;;0.30;0.20;;;;;;;8.43;100.00;101310.06;4994576;28;20445;-53
2023/10/06 03:33:23;;;;;;;0.30;0.20;;;;;;;8.44;100.00;101307.41;4994519;28;20508;-53
2023/10/06 03:35:49;;;;;;;0.30;0.20;;;;;;;8.45;100.00;101308.28;4994245;28;20453;-53
2023/10/06 03:41:07;;;;;;;0.30;0.20;;;;;;;8.51;100.00;101309.19;4994078;28;20468;-53
2023/10/06 03:46:14;;;;;;;0.30;0.20;;;;;;;8.67;100.00;101319.72;4994502;28;20445;-53
2023/10/06 03:48:40;;;;;;;0.30;0.20;;;;;;;8.69;100.00;101315.28;4994019;28;20473;-53
2023/10/06 03:51:07;;;;;;;0.30;0.20;;;;;;;8.76;100.00;101309.03;4994086;28;20874;-53
2023/10/06 03:53:33;;;;;;;0.30;0.20;;;;;;;8.76;100.00;101317.00;4994045;28;20540;-53
2023/10/06 03:56:00;;;;;;;0.30;0.20;;;;;;;8.77;100.00;101318.75;4994130;28;20936;-53
2023/10/06 03:58:31;;;;;;;0.30;0.20;;;;;;;8.83;100.00;101319.63;4993928;28;20474;-52
2023/10/06 04:00:58;;;;;;;0.30;0.20;;;;;;;8.88;100.00;101311.63;4994423;28;20540;-51
2023/10/06 04:03:25;;;;;;;0.30;0.20;;;;;;;8.95;100.00;101312.50;4993912;28;20600;-50
2023/10/06 04:05:51;;;;;;;0.30;0.20;;;;;;;8.80;100.00;101317.00;4993988;28;20452;-51
2023/10/06 04:08:22;;;;;;;0.30;0.20;;;;;;;8.81;100.00;101313.47;4993762;28;20490;-51
2023/10/06 04:10:57;;;;;;;0.30;0.20;;;;;;;8.85;100.00;101317.84;4983805;28;20508;-51
2023/10/06 04:13:27;;;;;;;0.30;0.20;;;;;;;8.83;100.00;101322.28;4979029;28;20449;-50
2023/10/06 04:15:53;;;;;;;0.30;0.20;;;;;;;8.80;100.00;101316.13;4993614;28;20982;-51
2023/10/06 04:18:24;;;;;;;0.30;0.20;;;;;;;8.89;100.00;101321.34;4986300;28;20487;-52
2023/10/06 04:20:52;;;;;;;0.30;0.20;;;;;;;8.89;100.00;101316.03;4993586;28;20460;-52
2023/10/06 04:23:22;;;;;;;0.30;0.20;;;;;;;8.86;100.00;101321.38;4993465;28;20541;-52
2023/10/06 04:25:54;;;;;;;0.30;0.20;;;;;;;8.92;100.00;101318.72;4993459;28;20525;-51
2023/10/06 04:28:26;;;;;;;0.30;0.20;;;;;;;8.92;100.00;101325.78;4993539;28;20481;-52
2023/10/06 04:30:54;;;;;;;0.30;0.20;;;;;;;8.92;100.00;101325.78;4993352;28;20424;-52
2023/10/06 04:33:21;;;;;;;0.30;0.20;;;;;;;8.92;100.00;101318.72;4993268;28;20545;-51
2023/10/06 04:35:55;;;;;;;0.30;0.20;;;;;;;8.96;100.00;101323.09;4993075;28;20881;-52
2023/10/06 04:38:29;;;;;;;0.30;0.20;;;;;;;9.01;100.00;101323.06;4993296;28;20468;-52
2023/10/06 04:40:59;;;;;;;0.30;0.20;;;;;;;9.03;100.00;101323.94;4992957;28;20449;-52
2023/10/06 04:43:26;;;;;;;0.30;0.20;;;;;;;9.02;100.00;101336.31;4989837;28;20445;-52
2023/10/06 04:45:55;;;;;;;0.30;0.20;;;;;;;9.00;100.00;101329.25;4992809;28;20563;-52
2023/10/06 04:48:21;;;;;;;0.30;0.20;;;;;;;9.05;100.00;101319.53;4993197;28;20473;-52
2023/10/06 04:50:51;;;;;;;0.30;0.20;;;;;;;8.91;100.00;101322.25;4992893;28;20453;-51
2023/10/06 04:53:18;;;;;;;0.30;0.20;;;;;;;8.94;100.00;101319.56;4993032;28;20454;-53
2023/10/06 04:55:44;;;;;;;0.30;0.20;;;;;;;8.91;100.00;101314.31;4992664;28;20884;-53
2023/10/06 04:58:15;;;;;;;0.30;0.20;;;;;;;8.83;100.00;101316.09;4992809;28;20473;-53
2023/10/06 05:00:42;;;;;;;0.30;0.20;;;;;;;8.82;100.00;101309.03;4967428;28;20580;-52
2023/10/06 05:03:10;;;;;;;0.30;0.20;;;;;;;8.70;100.00;101304.66;4992445;28;20967;-52
2023/10/06 05:05:38;;;;;;;0.30;0.20;;;;;;;8.65;100.00;101313.53;4992798;28;20528;-52
2023/10/06 05:08:09;;;;;;;0.30;0.20;;;;;;;8.64;100.00;101314.44;4992622;28;20539;-53
2023/10/06 05:10:37;;;;;;;0.30;0.20;;;;;;;8.73;100.00;101319.66;4984579;28;20450;-53
2023/10/06 05:13:06;;;;;;;0.30;0.20;;;;;;;8.64;100.00;101319.72;4974997;28;20611;-52
2023/10/06 05:15:37;;;;;;;0.30;0.20;;;;;;;8.73;100.00;101325.84;4992990;28;20453;-52
2023/10/06 05:18:04;;;;;;;0.30;0.20;;;;;;;8.82;100.00;101330.25;4985174;28;20568;-52
2023/10/06 05:20:33;;;;;;;0.30;0.20;;;;;;;8.88;100.00;101322.25;4992839;28;20464;-52
2023/10/06 05:23:09;;;;;;;0.30;0.20;;;;;;;8.84;100.00;101339.94;4992631;28;20449;-52
2023/10/06 05:25:36;;;;;;;0.30;0.20;;;;;;;8.75;100.00;101341.75;4992670;28;21025;-52
2023/10/06 05:28:04;;;;;;;0.30;0.20;;;;;;;8.77;100.00;101340.88;4992408;28;20997;-52
2023/10/06 05:30:31;;;;;;;0.30;0.20;;;;;;;8.77;100.00;101343.53;4992728;28;20874;-52
2023/10/06 05:32:59;;;;;;;0.30;0.20;;;;;;;8.79;100.00;101338.22;4992689;28;20456;-52
2023/10/06 05:35:27;;;;;;;0.30;0.20;;;;;;;8.77;100.00;101330.28;4992630;28;20915;-51
2023/10/06 05:37:54;;;;;;;0.33;0.20;;;;;;;8.85;100.00;101338.16;4992360;28;20568;-52
2023/10/06 05:40:20;;;;;;;0.30;0.20;;;;;;;8.78;100.00;101334.69;4993035;28;20540;-52
2023/10/06 05:42:50;;;;;;;0.30;0.20;;;;;;;8.72;100.00;101334.69;4988940;28;20968;-52
2023/10/06 05:45:20;;;;;;;0.30;0.20;;;;;;;8.74;100.00;101329.38;4992512;28;20915;-52
2023/10/06 05:47:51;;;;;;;0.30;0.20;;;;;;;8.73;100.00;101341.75;4992416;28;20469;-52
2023/10/06 05:50:25;;;;;;;0.30;0.20;;;;;;;8.74;100.00;101342.63;4992289;28;20464;-52
2023/10/06 05:52:53;;;;;;;0.30;0.20;;;;;;;8.67;100.00;101343.56;4992740;28;20931;-51
2023/10/06 05:55:20;;;;;;;0.30;0.20;;;;;;;8.67;100.00;101341.78;4992522;28;20458;-52
2023/10/06 05:57:55;;;;;;;0.30;0.20;;;;;;;8.79;100.00;101340.88;4992645;28;20469;-52
2023/10/06 06:00:27;;;;;;;0.30;0.20;;;;;;;8.94;100.00;101337.25;4992436;28;20449;-52
2023/10/06 06:02:57;;;;;;;0.30;0.20;;;;;;;8.91;100.00;101340.81;4975273;28;20446;-52
2023/10/06 06:05:29;;;;;;;0.30;0.20;;;;;;;8.83;100.00;101332.00;4992438;28;20485;-52
2023/10/06 06:08:00;;;;;;;0.30;0.20;;;;;;;8.71;100.00;101337.34;4992503;28;20477;-52
2023/10/06 06:10:29;;;;;;;0.30;0.20;;;;;;;8.95;100.00;101342.56;4985340;28;20533;-52
2023/10/06 06:12:56;;;;;;;0.30;0.20;;;;;;;9.13;100.00;101337.13;4973672;28;20458;-52
2023/10/06 06:15:25;;;;;;;0.30;0.20;;;;;;;9.19;100.00;101342.41;4992436;28;20449;-52
2023/10/06 06:17:52;;;;;;;0.30;0.20;;;;;;;9.12;100.00;101351.28;4988413;28;20474;-52
2023/10/06 06:20:21;;;;;;;0.30;0.20;;;;;;;9.08;100.00;101352.22;4996079;28;20484;-52
2023/10/06 06:23:04;;;;;;;0.30;0.20;;;;;;;9.27;100.00;101357.41;4995803;28;20459;-52
2023/10/06 06:25:30;;;;;;;0.30;0.20;;;;;;;9.35;100.00;101356.47;4995661;28;20975;-52
2023/10/06 06:27:59;;;;;;;0.30;0.20;;;;;;;9.53;100.00;101360.75;4995474;28;20563;-52
2023/10/06 06:30:26;;;;;;;0.30;0.20;;;;;;;9.49;100.00;101359.03;4995905;28;20459;-52
2023/10/06 06:32:54;;;;;;;0.30;0.20;;;;;;;9.17;100.00;101353.91;4995470;28;20508;-51
2023/10/06 06:35:22;;;;;;;0.30;0.20;;;;;;;9.29;100.00;101353.84;4995494;28;21018;-51
2023/10/06 06:37:51;;;;;;;0.30;0.20;;;;;;;9.15;100.00;101359.22;4995383;28;20564;-51
2023/10/06 06:40:19;;;;;;;0.30;0.20;;;;;;;9.19;100.00;101352.16;4995579;28;20939;-51
2023/10/06 06:42:47;;;;;;;0.30;0.20;;;;;;;9.19;100.00;101347.72;4992808;28;20845;-51
2023/10/06 06:45:14;;;;;;;0.30;0.20;;;;;;;9.15;100.00;101343.31;4995322;28;20493;-51
2023/10/06 06:47:44;;;;;;;0.30;0.20;;;;;;;9.07;100.00;101334.53;4995299;28;20508;-51
2023/10/06 06:50:18;;;;;;;0.30;0.20;;;;;;;9.21;100.00;101342.41;4995261;28;20508;-51
2023/10/06 06:52:46;;;;;;;0.30;0.20;;;;;;;9.39;100.00;101346.72;4995185;28;20931;-51
2023/10/06 06:55:13;;;;;;;0.30;0.20;;;;;;;9.38;100.00;101352.91;4995387;28;20450;-51
2023/10/06 06:57:44;;;;;;;0.30;0.20;;;;;;;9.30;100.00;101349.41;4994939;28;21006;-51
2023/10/06 07:00:15;;;;;;;0.30;0.20;;;;;;;9.14;100.00;101360.13;4995068;28;20517;-51
2023/10/06 07:02:43;;;;;;;0.30;0.20;;;;;;;9.43;100.00;101359.06;4994866;28;20986;-50
2023/10/06 07:05:18;;;;;;;0.30;0.20;;;;;;;9.26;100.00;101358.28;4994804;28;20489;-51
2023/10/06 07:07:45;;;;;;;0.30;0.20;;;;;;;9.04;100.00;101357.50;4994902;28;21040;-51
2023/10/06 07:10:19;;;;;;;0.30;0.20;;;;;;;9.16;100.00;101363.63;4989852;28;20805;-51
2023/10/06 07:12:50;;;;;;;0.30;0.20;;;;;;;9.30;100.00;101352.06;4975480;28;20948;-51
2023/10/06 07:15:19;;;;;;;0.30;0.20;;;;;;;9.42;100.00;101360.84;4969682;28;20533;-51
2023/10/06 07:17:50;;;;;;;0.30;0.20;;;;;;;9.29;100.00;101369.75;4987137;28;20478;-52
2023/10/06 07:20:20;;;;;;;0.30;0.20;;;;;;;9.65;100.00;101376.59;4994988;28;20507;-51
2023/10/06 07:22:47;;;;;;;0.30;0.20;;;;;;;10.05;100.00;101360.34;4994724;28;20605;-51
2023/10/06 07:25:15;;;;;;;0.30;0.20;;;;;;;9.98;100.00;101372.78;4994827;28;20503;-52
2023/10/06 07:27:53;;;;;;;0.30;0.20;;;;;;;9.96;100.00;101373.69;4994280;28;20488;-51
2023/10/06 07:30:22;;;;;;;0.30;0.20;;;;;;;10.28;100.00;101368.13;4994544;28;20815;-52
2023/10/06 07:32:51;;;;;;;0.30;0.20;;;;;;;10.19;100.00;101363.75;4994582;28;20457;-52
2023/10/06 07:35:19;;;;;;;0.30;0.20;;;;;;;10.50;100.00;101360.81;4994561;28;20536;-51
2023/10/06 07:37:47;;;;;;;0.30;0.20;;;;;;;10.35;100.00;101356.53;4994316;28;20469;-51
2023/10/06 07:40:18;;;;;;;0.30;0.20;;;;;;;10.70;100.00;101361.47;4994436;28;20463;-51
2023/10/06 07:42:49;;;;;;;0.30;0.20;;;;;;;10.80;100.00;101360.44;4991273;28;20508;-52
2023/10/06 07:45:17;;;;;;;0.30;0.20;;;;;;;10.49;100.00;101367.91;4994484;28;20492;-52
2023/10/06 07:47:45;;;;;;;0.30;0.20;;;;;;;10.59;100.00;101377.53;4994381;28;20473;-51
2023/10/06 07:50:13;;;;;;;0.30;0.20;;;;;;;10.57;100.00;101375.81;4994223;28;20465;-51
2023/10/06 07:52:41;;;;;;;0.30;0.20;;;;;;;10.93;100.00;101379.78;4994198;28;20477;-51
2023/10/06 07:55:09;;;;;;;0.30;0.20;;;;;;;10.53;100.00;101368.75;4993970;28;20446;-51
2023/10/06 07:57:37;;;;;;;0.30;0.20;;;;;;;10.64;100.00;101366.84;4994177;28;20484;-51
2023/10/06 08:00:06;;;;;;;0.40;0.37;;;;;;;10.81;100.00;101371.97;4993987;28;20896;-51
2023/10/06 08:02:33;;;;;;;0.30;0.20;;;;;;;10.87;100.00;101374.56;4993797;28;20943;-51
2023/10/06 08:04:59;;;;;;;0.30;0.20;;;;;;;10.94;100.00;101378.88;4993798;28;20496;-51
2023/10/06 08:07:27;;;;;;;0.30;0.20;;;;;;;11.08;100.00;101381.38;4993943;28;20560;-51
2023/10/06 08:09:58;;;;;;;0.40;0.20;;;;;;;11.10;100.00;101368.94;4991162;28;20453;-51
2023/10/06 08:12:27;;;;;;;0.30;0.20;;;;;;;11.27;100.00;101377.59;4956933;28;20454;-51
2023/10/06 08:14:54;;;;;;;0.30;0.20;;;;;;;11.61;100.00;101377.06;4990800;28;20930;-51
2023/10/06 08:17:20;;;;;;;0.30;0.20;;;;;;;11.93;100.00;101374.84;4989082;28;20512;-51
2023/10/06 08:19:47;;;;;;;0.30;0.20;;;;;;;12.24;100.00;101377.84;4990739;28;20449;-52
2023/10/06 08:22:14;;;;;;;0.30;0.20;;;;;;;12.04;100.00;101380.84;4993536;28;20435;-51
2023/10/06 08:24:41;;;;;;;0.30;0.30;;;;;;;11.93;100.00;101377.50;4993539;28;20454;-52
2023/10/06 08:27:07;;;;;;;0.30;0.20;;;;;;;12.11;100.00;101377.19;4993675;28;20460;-51
2023/10/06 08:29:34;;;;;;;0.30;0.20;;;;;;;12.58;100.00;101378.06;4993464;28;20457;-52
2023/10/06 08:32:02;;;;;;;0.30;0.20;;;;;;;12.97;100.00;101373.72;4993366;28;20454;-52
2023/10/06 08:34:30;;;;;;;0.30;0.20;;;;;;;12.88;100.00;101367.69;4993134;28;20464;-51
2023/10/06 08:37:00;;;;;;;0.30;0.20;;;;;;;13.01;100.00;101370.06;4993214;28;20449;-52
2023/10/06 08:39:38;;;;;;;0.30;0.20;;;;;;;12.84;100.00;101374.00;4992721;28;20454;-51
2023/10/06 08:42:12;;;;;;;0.30;0.20;;;;;;;12.98;100.00;101378.16;4989913;28;20924;-51
2023/10/06 08:44:41;;;;;;;0.30;0.20;;;;;;;13.29;100.00;101373.09;4993264;28;20449;-51
2023/10/06 08:47:12;;;;;;;0.30;0.20;;;;;;;13.35;99.17;101372.06;4993103;28;20446;-51
2023/10/06 08:49:56;;;;;;;0.40;0.20;;;;;;;13.56;98.64;101370.66;4993371;28;20445;-51
2023/10/06 08:52:22;;;;;;;0.40;0.20;;;;;;;13.71;98.37;101367.66;4993144;28;20439;-51
2023/10/06 08:54:49;;;;;;;0.40;0.30;;;;;;;13.40;98.64;101362.13;4993287;28;20468;-52
2023/10/06 08:57:15;;;;;;;0.40;0.20;;;;;;;13.70;97.60;101349.84;4993172;28;20535;-51
2023/10/06 08:59:42;;;;;;;0.33;0.20;;;;;;;13.76;98.42;101351.50;4993017;28;20432;-51
2023/10/06 09:02:09;;;;;;;0.40;0.20;;;;;;;13.54;98.63;101349.34;4992760;28;20462;-52
2023/10/06 09:04:37;;;;;;;0.40;0.30;;;;;;;13.63;98.71;101346.47;4993139;28;20871;-51
2023/10/06 09:07:16;;;;;;;0.40;0.20;;;;;;;14.05;97.82;101348.09;4992782;28;20558;-52
2023/10/06 09:09:43;;;;;;;0.40;0.20;;;;;;;14.05;98.13;101356.13;4991706;28;20822;-51
2023/10/06 09:12:26;;;;;;;0.40;0.20;;;;;;;14.02;98.03;101356.19;4973367;28;20450;-51
2023/10/06 09:14:56;;;;;;;0.40;0.20;;;;;;;14.56;97.00;101353.00;4989867;28;20453;-51
2023/10/06 09:17:35;;;;;;;0.40;0.20;;;;;;;14.64;96.65;101338.47;4970660;28;20559;-51
2023/10/06 09:20:02;;;;;;;0.40;0.20;;;;;;;14.92;96.23;101338.53;4992148;28;20441;-52
2023/10/06 09:22:46;;;;;;;0.40;0.20;;;;;;;14.91;94.74;101331.44;4992671;28;20457;-51
2023/10/06 09:25:13;;;;;;;0.40;0.20;;;;;;;14.80;94.66;101322.84;4992861;28;20496;-51
2023/10/06 09:27:41;;;;;;;0.40;0.20;;;;;;;15.43;94.02;101324.47;4992465;28;21062;-51
2023/10/06 09:30:11;;;;;;;0.40;0.20;;;;;;;15.40;93.22;101316.53;4992793;28;20458;-52
2023/10/06 09:32:39;;;;;;;0.40;0.20;;;;;;;15.43;92.49;101311.09;4992662;28;20887;-52
2023/10/06 09:35:22;;;;;;;0.40;0.40;;;;;;;15.25;93.99;101301.84;4992542;28;20509;-51
2023/10/06 09:37:51;;;;;;;0.40;0.20;;;;;;;14.90;95.31;101304.72;4992635;28;20478;-51
2023/10/06 09:40:20;;;;;;;0.40;0.20;;;;;;;15.22;94.81;101287.69;4992623;28;20457;-50
2023/10/06 09:42:48;;;;;;;0.40;0.20;;;;;;;15.77;93.67;101296.63;4989023;28;20450;-50
2023/10/06 09:45:21;;;;;;;0.40;0.20;;;;;;;15.72;92.53;101295.88;4992435;28;21017;-51
2023/10/06 09:47:56;;;;;;;0.40;0.20;;;;;;;15.96;91.99;101303.09;4992393;28;20484;-50
2023/10/06 09:50:23;;;;;;;0.40;0.20;;;;;;;15.95;90.93;101295.97;4994273;28;20462;-51
2023/10/06 09:52:51;;;;;;;0.40;0.20;;;;;;;15.80;91.71;101294.72;4996477;28;20533;-50
2023/10/06 09:55:20;;;;;;;0.40;0.20;;;;;;;15.78;91.95;101293.00;4996252;28;20544;-50
2023/10/06 09:57:48;;;;;;;0.40;0.20;;;;;;;15.63;92.02;101287.25;4996053;28;20473;-50
2023/10/06 10:00:17;;;;;;;0.40;0.20;;;;;;;15.80;91.47;101286.66;4996108;28;20457;-50
2023/10/06 10:02:46;;;;;;;0.40;0.20;;;;;;;16.06;91.05;101284.88;4996412;28;20544;-50
2023/10/06 10:05:14;;;;;;;0.40;0.20;;;;;;;16.25;90.13;101300.25;4995997;28;20485;-50
2023/10/06 10:07:41;;;;;;;0.40;0.20;;;;;;;16.61;89.24;101291.81;4996129;28;20484;-51
2023/10/06 10:10:12;;;;;;;0.40;0.20;;;;;;;16.52;88.89;101286.78;4991450;28;20449;-51
2023/10/06 10:13:10;;;;;;;0.40;0.20;;;;;;;16.24;88.20;101285.09;4976518;28;20450;-50
2023/10/06 10:15:59;;;;;;;0.40;0.20;;;;;;;16.61;88.33;101283.75;4976159;28;20524;-50
2023/10/06 10:18:36;;;;;;;1.60;1.50;;;;;;;16.84;87.51;101280.19;4988404;28;20484;-50
2023/10/06 10:21:06;;;;;;;0.40;0.20;;;;;;;16.96;88.33;101277.03;4995884;28;20464;-50
2023/10/06 10:23:33;;;;;;;0.40;0.20;;;;;;;17.04;87.98;101277.63;4995853;28;20827;-51
2023/10/06 10:26:23;;;;;;;0.40;0.20;;;;;;;17.53;86.95;101269.38;4995710;28;20858;-51
2023/10/06 10:29:17;;;;;;;0.40;0.20;;;;;;;17.63;86.49;101265.38;4995818;28;20823;-50
2023/10/06 10:31:51;;;;;;;0.40;0.20;;;;;;;17.47;86.59;101254.38;4973766;28;20503;-52
2023/10/06 10:34:34;;;;;;;0.40;0.20;;;;;;;17.61;86.40;101256.50;4995660;28;20460;-52
2023/10/06 10:37:05;;;;;;;0.40;0.20;;;;;;;18.05;84.58;101257.31;4995320;28;20492;-51
2023/10/06 10:39:53;;;;;;;0.93;0.93;;;;;;;18.01;85.26;101253.00;4995440;28;20468;-51
2023/10/06 10:42:36;;;;;;;0.40;0.20;;;;;;;18.01;83.31;101253.00;4991860;28;20928;-51
2023/10/06 10:45:34;;;;;;;0.40;0.20;;;;;;;17.80;84.77;101252.09;4995535;28;20519;-51
2023/10/06 10:48:13;;;;;;;0.40;0.20;;;;;;;17.90;83.80;101260.66;4966519;28;20462;-51
2023/10/06 10:51:00;;;;;;;0.40;0.30;;;;;;;18.05;83.05;101258.19;4995293;28;20472;-51
2023/10/06 10:53:32;;;;;;;0.40;0.20;;;;;;;18.20;82.92;101247.66;4995050;28;20432;-50
2023/10/06 10:55:59;;;;;;;0.40;0.20;;;;;;;18.42;82.17;101244.91;4995347;28;20792;-50
2023/10/06 10:58:42;;;;;;;0.40;0.20;;;;;;;18.74;80.95;101235.34;4994938;28;20478;-50
2023/10/06 11:01:27;;;;;;;0.40;0.20;;;;;;;18.65;80.65;101231.28;4994803;28;20459;-51
2023/10/06 11:04:18;;;;;;;0.40;0.20;;;;;;;18.64;79.68;101241.19;4994910;28;20424;-51
2023/10/06 11:06:49;;;;;;;0.40;0.20;;;;;;;18.60;79.30;101234.13;4994736;28;20844;-51
2023/10/06 11:09:36;;;;;;;0.40;0.20;;;;;;;19.02;78.79;101233.06;4994882;28;20461;-52
2023/10/06 11:12:17;;;;;;;0.40;0.20;;;;;;;18.91;80.16;101227.31;4971646;28;20458;-52
2023/10/06 11:14:49;;;;;;;0.40;0.20;;;;;;;19.29;78.19;101220.06;4990880;28;20888;-52
2023/10/06 11:17:24;;;;;;;0.40;0.20;;;;;;;19.18;77.66;101217.03;4990766;28;20533;-52
2023/10/06 11:20:13;;;;;;;0.40;0.20;;;;;;;19.22;76.98;101215.94;4992401;28;20439;-50
2023/10/06 11:22:50;;;;;;;0.40;0.20;;;;;;;19.52;77.43;101219.78;4994619;28;20870;-51
2023/10/06 11:25:16;;;;;;;0.40;0.20;;;;;;;19.55;76.67;101210.69;4994671;28;20892;-51
2023/10/06 11:27:43;;;;;;;0.40;0.20;;;;;;;19.59;74.71;101208.72;4994688;28;20551;-51
2023/10/06 11:30:15;;;;;;;0.40;0.20;;;;;;;19.23;76.59;101202.38;4994692;28;20788;-51
2023/10/06 11:32:41;;;;;;;0.40;0.20;;;;;;;19.53;76.15;101196.38;4994597;28;20449;-51
2023/10/06 11:35:10;;;;;;;0.40;0.20;;;;;;;19.62;75.60;101192.38;4984520;28;20433;-52
2023/10/06 11:37:37;;;;;;;0.40;0.20;;;;;;;19.80;75.60;101186.91;4957210;28;20475;-51
2023/10/06 11:40:05;;;;;;;0.40;0.30;;;;;;;19.90;74.79;101179.19;4970279;28;20429;-51
2023/10/06 11:42:36;;;;;;;0.40;0.20;;;;;;;20.11;74.49;101180.72;4978342;28;20468;-51
2023/10/06 11:45:06;;;;;;;0.40;0.20;;;;;;;20.23;73.60;101178.31;4994389;28;20496;-51
2023/10/06 11:47:33;;;;;;;0.40;0.20;;;;;;;19.92;73.33;101174.59;4974800;28;20559;-51
2023/10/06 11:50:13;;;;;;;0.40;0.20;;;;;;;19.36;74.39;101174.81;4955848;28;20441;-51
2023/10/06 11:52:45;;;;;;;0.40;0.20;;;;;;;19.81;73.79;101163.47;4974958;28;20939;-51
2023/10/06 11:55:14;;;;;;;0.40;0.20;;;;;;;19.92;72.69;101165.63;4988713;28;20514;-51
2023/10/06 11:57:45;;;;;;;0.40;0.20;;;;;;;20.10;72.21;101156.53;4993994;28;20478;-51
2023/10/06 12:00:19;;;;;;;0.40;0.20;;;;;;;20.39;71.34;101154.91;4980493;28;20549;-51